createdAt,value
2023-04-28T00:03:07.133Z,6.50
2023-04-28T00:05:34.326Z,6.13
2023-04-28T00:08:01.656Z,8.57
2023-04-28T00:10:28.742Z,4.97
2023-04-28T00:12:55.958Z,5.13
2023-04-28T00:15:23.031Z,5.47
2023-04-28T00:17:50.321Z,5.00
2023-04-28T00:22:58.980Z,7.27
2023-04-28T00:25:28.950Z,3.97
2023-04-28T00:27:56.128Z,7.77
2023-04-28T00:30:25.333Z,4.43
2023-04-28T00:32:52.651Z,5.80
2023-04-28T00:35:20.069Z,6.13
2023-04-28T00:37:47.249Z,5.37
2023-04-28T00:40:14.444Z,5.43
2023-04-28T00:42:41.683Z,7.40
2023-04-28T00:45:09.334Z,6.70
2023-04-28T00:47:38.665Z,6.70
2023-04-28T00:50:06.430Z,4.63
2023-04-28T00:52:33.463Z,5.00
2023-04-28T00:55:00.668Z,4.33
2023-04-28T00:57:27.840Z,4.97
2023-04-28T00:59:54.888Z,4.63
2023-04-28T01:02:22.133Z,5.73
2023-04-28T01:04:53.693Z,4.60
2023-04-28T01:07:21.139Z,4.83
2023-04-28T01:09:48.856Z,3.87
2023-04-28T01:12:16.080Z,4.93
2023-04-28T01:14:43.233Z,4.90
2023-04-28T01:17:10.731Z,6.67
2023-04-28T01:19:37.746Z,4.50
2023-04-28T01:22:04.932Z,4.97
2023-04-28T01:24:32.118Z,3.63
2023-04-28T01:26:59.178Z,5.43
2023-04-28T01:29:26.427Z,6.70
2023-04-28T01:31:53.885Z,4.50
2023-04-28T01:34:20.994Z,9.30
2023-04-28T01:36:51.156Z,5.90
2023-04-28T01:39:18.868Z,5.77
2023-04-28T01:41:45.985Z,8.90
2023-04-28T01:44:13.276Z,5.20
2023-04-28T01:46:40.756Z,4.93
2023-04-28T01:49:08.190Z,8.40
2023-04-28T01:51:35.450Z,5.37
2023-04-28T01:54:02.495Z,8.20
2023-04-28T01:56:29.533Z,9.17
2023-04-28T01:58:56.579Z,6.10
2023-04-28T02:01:23.880Z,7.67
2023-04-28T02:03:51.266Z,6.17
2023-04-28T02:06:18.497Z,6.73
2023-04-28T02:08:45.795Z,6.37
2023-04-28T02:11:12.947Z,4.90
2023-04-28T02:13:40.018Z,8.77
2023-04-28T02:16:07.429Z,6.87
2023-04-28T02:18:36.127Z,5.83
2023-04-28T02:21:13.019Z,7.17
2023-04-28T02:23:40.846Z,5.63
2023-04-28T02:26:08.167Z,5.27
2023-04-28T02:28:35.323Z,4.60
2023-04-28T02:31:09.586Z,5.33
2023-04-28T02:33:38.228Z,6.77
2023-04-28T02:36:06.523Z,4.63
2023-04-28T02:38:34.023Z,6.53
2023-04-28T02:41:05.856Z,5.17
2023-04-28T02:43:33.310Z,6.87
2023-04-28T02:46:00.732Z,9.83
2023-04-28T02:48:27.955Z,6.10
2023-04-28T02:50:55.064Z,9.10
2023-04-28T02:53:22.480Z,8.73
2023-04-28T02:55:49.627Z,4.23
2023-04-28T03:01:04.411Z,7.27
2023-04-28T03:03:31.763Z,9.00
2023-04-28T03:05:59.150Z,4.80
2023-04-28T03:08:26.884Z,5.87
2023-04-28T03:10:54.024Z,6.60
2023-04-28T03:13:21.455Z,4.90
2023-04-28T03:15:48.501Z,5.90
2023-04-28T03:18:16.440Z,10.03
2023-04-28T03:20:43.642Z,8.20
2023-04-28T03:23:10.792Z,6.93
2023-04-28T03:25:37.889Z,5.73
2023-04-28T03:28:05.965Z,7.13
2023-04-28T03:30:33.077Z,6.93
2023-04-28T03:33:00.177Z,6.60
2023-04-28T03:35:27.838Z,7.13
2023-04-28T03:37:54.931Z,11.43
2023-04-28T03:40:22.107Z,6.60
2023-04-28T03:42:49.286Z,6.30
2023-04-28T03:45:16.884Z,9.97
2023-04-28T03:47:43.996Z,9.10
2023-04-28T03:50:11.238Z,6.20
2023-04-28T03:52:38.747Z,10.40
2023-04-28T03:55:06.252Z,10.83
2023-04-28T03:57:33.356Z,7.87
2023-04-28T04:00:00.399Z,7.20
2023-04-28T04:02:27.583Z,12.60
2023-04-28T04:04:54.828Z,7.90
2023-04-28T04:07:22.976Z,6.93
2023-04-28T04:09:50.034Z,8.97
2023-04-28T04:12:17.151Z,7.63
2023-04-28T04:14:44.312Z,8.70
2023-04-28T04:17:11.378Z,8.93
2023-04-28T04:19:38.406Z,7.67
2023-04-28T04:22:05.584Z,8.80
2023-04-28T04:24:32.663Z,9.00
2023-04-28T04:29:49.136Z,10.40
2023-04-28T04:32:16.205Z,9.63
2023-04-28T04:34:43.293Z,8.00
2023-04-28T04:37:10.508Z,11.83
2023-04-28T04:39:37.612Z,7.30
2023-04-28T04:42:16.738Z,6.57
2023-04-28T04:44:50.094Z,8.77
2023-04-28T04:47:17.165Z,7.30
2023-04-28T04:49:44.324Z,8.63
2023-04-28T04:52:11.465Z,10.20
2023-04-28T04:54:38.791Z,13.73
2023-04-28T04:57:07.020Z,10.57
2023-04-28T04:59:34.129Z,11.80
2023-04-28T05:02:01.255Z,8.50
2023-04-28T05:04:28.631Z,9.87
2023-04-28T05:06:55.826Z,11.63
2023-04-28T05:09:23.441Z,9.80
2023-04-28T05:11:50.798Z,8.97
2023-04-28T05:14:18.274Z,9.67
2023-04-28T05:16:45.753Z,9.37
2023-04-28T05:19:12.839Z,10.90
2023-04-28T05:21:39.909Z,6.60
2023-04-28T05:24:07.031Z,8.60
2023-04-28T05:26:44.728Z,12.67
2023-04-28T05:29:12.090Z,8.80
2023-04-28T05:31:39.460Z,9.83
2023-04-28T05:36:42.514Z,8.30
2023-04-28T05:39:09.537Z,9.83
2023-04-28T05:41:37.052Z,9.47
2023-04-28T05:44:04.252Z,9.13
2023-04-28T05:46:31.980Z,8.77
2023-04-28T05:48:59.327Z,13.73
2023-04-28T05:51:27.575Z,8.83
2023-04-28T05:53:54.730Z,9.60
2023-04-28T05:56:21.914Z,14.07
2023-04-28T05:58:50.604Z,7.77
2023-04-28T06:01:17.966Z,10.53
2023-04-28T06:03:45.614Z,14.47
2023-04-28T06:06:13.704Z,11.87
2023-04-28T06:08:40.957Z,12.40
2023-04-28T06:11:08.332Z,8.73
2023-04-28T06:13:35.429Z,10.70
2023-04-28T06:16:02.511Z,11.03
2023-04-28T06:18:32.708Z,13.17
2023-04-28T06:20:59.905Z,11.57
2023-04-28T06:23:27.160Z,12.63
2023-04-28T06:25:54.265Z,11.43
2023-04-28T06:28:21.335Z,11.83
2023-04-28T06:30:48.440Z,13.10
2023-04-28T06:33:15.510Z,11.23
2023-04-28T06:35:42.660Z,11.50
2023-04-28T06:38:09.753Z,9.70
2023-04-28T06:40:36.852Z,11.37
2023-04-28T06:43:03.923Z,9.80
2023-04-28T06:45:31.039Z,8.47
2023-04-28T06:47:58.172Z,12.47
2023-04-28T06:50:25.288Z,9.93
2023-04-28T06:52:52.415Z,12.97
2023-04-28T06:55:19.671Z,15.43
2023-04-28T06:57:47.134Z,10.07
2023-04-28T07:00:14.824Z,11.10
2023-04-28T07:02:42.169Z,9.43
2023-04-28T07:05:09.446Z,11.33
2023-04-28T07:07:38.985Z,11.43
2023-04-28T07:10:06.765Z,8.60
2023-04-28T07:12:33.868Z,9.53
2023-04-28T07:15:01.071Z,10.93
2023-04-28T07:17:28.550Z,12.17
2023-04-28T07:19:55.856Z,12.50
2023-04-28T07:22:22.997Z,12.73
2023-04-28T07:24:50.203Z,11.10
2023-04-28T07:27:17.394Z,9.27
2023-04-28T07:29:44.455Z,11.23
2023-04-28T07:32:11.576Z,10.63
2023-04-28T07:34:38.819Z,13.50
2023-04-28T07:37:07.047Z,9.93
2023-04-28T07:39:35.336Z,13.63
2023-04-28T07:42:03.478Z,12.50
2023-04-28T07:44:31.317Z,11.97
2023-04-28T07:46:59.570Z,12.27
2023-04-28T07:49:27.421Z,13.13
2023-04-28T07:51:55.659Z,11.70
2023-04-28T07:54:22.816Z,10.33
2023-04-28T07:56:50.586Z,13.77
2023-04-28T07:59:18.982Z,9.83
2023-04-28T08:01:46.630Z,11.40
2023-04-28T08:04:14.164Z,9.53
2023-04-28T08:06:41.980Z,14.53
2023-04-28T08:09:09.445Z,9.60
2023-04-28T08:11:36.805Z,11.07
2023-04-28T08:14:04.028Z,11.37
2023-04-28T08:16:31.714Z,11.87
2023-04-28T08:19:02.396Z,11.43
2023-04-28T08:21:29.599Z,11.57
2023-04-28T08:23:56.662Z,11.53
2023-04-28T08:26:24.764Z,14.03
2023-04-28T08:28:52.012Z,13.00
2023-04-28T08:31:19.184Z,14.67
2023-04-28T08:33:48.568Z,12.67
2023-04-28T08:36:15.856Z,18.83
2023-04-28T08:38:43.631Z,13.03
2023-04-28T08:41:10.833Z,15.33
2023-04-28T08:43:40.373Z,15.77
2023-04-28T08:46:08.292Z,14.07
2023-04-28T08:48:40.984Z,13.17
2023-04-28T08:51:08.798Z,12.67
2023-04-28T08:53:59.419Z,11.40
2023-04-28T08:56:25.613Z,10.83
2023-04-28T08:58:53.123Z,14.03
2023-04-28T09:01:20.485Z,13.03
2023-04-28T09:03:49.426Z,10.80
2023-04-28T09:06:16.852Z,10.30
2023-04-28T09:08:43.963Z,12.57
2023-04-28T09:11:13.650Z,11.30
2023-04-28T09:13:41.640Z,12.03
2023-04-28T09:19:19.342Z,10.87
2023-04-28T09:21:52.860Z,12.03
2023-04-28T09:24:31.061Z,14.43
2023-04-28T09:27:05.688Z,11.60
2023-04-28T09:29:33.032Z,16.63
2023-04-28T09:32:19.315Z,9.40
2023-04-28T09:34:47.508Z,10.10
2023-04-28T09:37:21.752Z,9.77
2023-04-28T09:39:50.712Z,9.23
2023-04-28T09:42:33.699Z,9.77
2023-04-28T09:45:02.926Z,10.97
2023-04-28T09:47:32.446Z,12.63
2023-04-28T09:50:01.112Z,10.67
2023-04-28T09:52:28.214Z,10.23
2023-04-28T09:54:59.577Z,9.57
2023-04-28T09:57:27.390Z,9.20
2023-04-28T09:59:54.889Z,9.83
2023-04-28T10:02:42.769Z,8.73
2023-04-28T10:05:11.357Z,9.50
2023-04-28T10:07:39.462Z,10.43
2023-04-28T10:10:08.105Z,9.17
2023-04-28T10:12:38.079Z,11.07
2023-04-28T10:15:05.591Z,8.20
2023-04-28T10:17:33.162Z,10.87
2023-04-28T10:20:00.843Z,10.17
2023-04-28T10:22:28.160Z,10.17
2023-04-28T10:25:09.452Z,8.43
2023-04-28T10:27:39.862Z,9.83
2023-04-28T10:32:48.288Z,9.70
2023-04-28T10:35:36.391Z,13.20
2023-04-28T10:38:08.311Z,7.70
2023-04-28T10:40:35.634Z,9.40
2023-04-28T10:43:03.041Z,10.20
2023-04-28T10:45:49.061Z,11.47
2023-04-28T10:48:17.010Z,9.57
2023-04-28T10:51:03.258Z,9.03
2023-04-28T10:53:46.083Z,10.50
2023-04-28T10:56:16.558Z,10.33
2023-04-28T10:58:46.131Z,10.33
2023-04-28T11:01:19.791Z,8.83
2023-04-28T11:03:47.358Z,10.77
2023-04-28T11:06:28.714Z,8.83
2023-04-28T11:09:00.720Z,9.67
2023-04-28T11:11:42.426Z,8.43
2023-04-28T11:14:31.582Z,11.57
2023-04-28T11:17:04.575Z,8.93
2023-04-28T11:19:31.588Z,11.43
2023-04-28T11:21:59.474Z,9.27
2023-04-28T11:24:27.378Z,9.30
2023-04-28T11:26:54.556Z,9.37
2023-04-28T11:29:33.698Z,10.13
2023-04-28T11:32:03.053Z,10.23
2023-04-28T11:34:30.470Z,9.53
2023-04-28T11:36:57.828Z,10.60
2023-04-28T11:39:32.316Z,11.00
2023-04-28T11:42:00.425Z,10.33
2023-04-28T11:44:29.046Z,11.20
2023-04-28T11:47:00.022Z,10.40
2023-04-28T11:49:30.815Z,12.00
2023-04-28T11:52:00.224Z,10.17
2023-04-28T11:54:30.359Z,10.37
2023-04-28T11:56:57.998Z,9.90
2023-04-28T11:59:27.191Z,10.53
2023-04-28T12:01:57.032Z,10.57
2023-04-28T12:04:27.992Z,11.07
2023-04-28T12:07:01.287Z,12.07
2023-04-28T12:09:28.353Z,11.10
2023-04-28T12:11:57.323Z,11.47
2023-04-28T12:14:24.865Z,13.27
2023-04-28T12:16:52.292Z,11.73
2023-04-28T12:19:20.257Z,12.57
2023-04-28T12:22:07.411Z,12.47
2023-04-28T12:24:35.981Z,11.77
2023-04-28T12:27:16.119Z,12.43
2023-04-28T12:29:43.874Z,15.07
2023-04-28T12:32:11.681Z,12.53
2023-04-28T12:34:43.459Z,13.50
2023-04-28T12:37:10.601Z,13.70
2023-04-28T12:39:39.660Z,14.17
2023-04-28T12:42:07.359Z,14.50
2023-04-28T12:44:38.401Z,13.53
2023-04-28T12:47:08.467Z,15.43
2023-04-28T12:49:36.402Z,14.13
2023-04-28T12:52:04.509Z,14.23
2023-04-28T12:54:32.098Z,15.43
2023-04-28T12:56:59.416Z,14.27
2023-04-28T12:59:26.751Z,14.90
2023-04-28T13:01:53.989Z,19.20
2023-04-28T13:04:21.623Z,14.90
2023-04-28T13:06:49.114Z,14.97
2023-04-28T13:09:16.695Z,15.63
2023-04-28T13:11:43.914Z,16.13
2023-04-28T13:14:10.991Z,15.53
2023-04-28T13:16:38.203Z,16.07
2023-04-28T13:19:09.532Z,16.07
2023-04-28T13:21:39.144Z,15.80
2023-04-28T13:24:06.723Z,17.07
2023-04-28T13:26:33.858Z,17.03
2023-04-28T13:29:02.277Z,18.40
2023-04-28T13:31:30.250Z,15.67
2023-04-28T13:33:57.994Z,16.10
2023-04-28T13:36:25.123Z,15.80
2023-04-28T13:38:52.315Z,15.13
2023-04-28T13:41:19.769Z,14.03
2023-04-28T13:43:46.779Z,14.80
2023-04-28T13:46:14.057Z,16.17
2023-04-28T13:48:41.854Z,15.93
2023-04-28T13:51:09.548Z,16.90
2023-04-28T13:53:40.117Z,18.70
2023-04-28T13:56:07.925Z,19.03
2023-04-28T13:58:36.136Z,20.63
2023-04-28T14:01:04.338Z,19.43
2023-04-28T14:03:31.712Z,20.00
2023-04-28T14:05:59.463Z,22.20
2023-04-28T14:08:27.940Z,21.03
2023-04-28T14:10:55.134Z,22.60
2023-04-28T14:13:22.191Z,21.53
2023-04-28T14:15:58.497Z,23.47
2023-04-28T14:18:26.492Z,24.43
2023-04-28T14:20:54.420Z,24.93
2023-04-28T14:23:22.055Z,23.53
2023-04-28T14:25:50.039Z,23.63
2023-04-28T14:28:17.096Z,23.73
2023-04-28T14:30:44.353Z,24.77
2023-04-28T14:33:11.773Z,25.60
2023-04-28T14:35:39.017Z,22.33
2023-04-28T14:38:06.251Z,22.23
2023-04-28T14:40:33.363Z,21.90
2023-04-28T14:43:00.425Z,22.03
2023-04-28T14:45:27.752Z,21.30
2023-04-28T14:47:54.913Z,22.37
2023-04-28T14:50:22.222Z,22.07
2023-04-28T14:52:49.618Z,22.23
2023-04-28T14:55:16.722Z,20.70
2023-04-28T14:57:43.815Z,20.93
2023-04-28T15:00:11.155Z,19.30
2023-04-28T15:02:38.475Z,18.57
2023-04-28T15:05:06.142Z,16.57
2023-04-28T15:07:33.717Z,17.53
2023-04-28T15:10:01.057Z,16.90
2023-04-28T15:12:30.516Z,17.53
2023-04-28T15:14:58.028Z,17.67
2023-04-28T15:17:25.442Z,17.33
2023-04-28T15:19:52.844Z,16.50
2023-04-28T15:22:21.832Z,18.30
2023-04-28T15:24:49.316Z,17.20
2023-04-28T15:27:16.515Z,16.87
2023-04-28T15:29:44.143Z,16.70
2023-04-28T15:32:11.318Z,17.20
2023-04-28T15:34:38.416Z,17.57
2023-04-28T15:37:08.831Z,15.93
2023-04-28T15:39:36.301Z,17.20
2023-04-28T15:42:04.968Z,16.23
2023-04-28T15:44:32.466Z,16.50
2023-04-28T15:46:59.562Z,16.17
2023-04-28T15:49:26.699Z,17.40
2023-04-28T15:51:53.749Z,15.73
2023-04-28T15:54:20.904Z,15.67
2023-04-28T15:56:59.296Z,14.70
2023-04-28T15:59:26.353Z,14.33
2023-04-28T16:01:55.218Z,13.97
2023-04-28T16:04:22.668Z,13.10
2023-04-28T16:06:52.078Z,14.37
2023-04-28T16:09:19.277Z,12.30
2023-04-28T16:11:47.599Z,9.23
2023-04-28T16:14:15.431Z,9.50
2023-04-28T16:16:42.843Z,9.17
2023-04-28T16:19:10.002Z,8.93
2023-04-28T16:21:37.067Z,7.83
2023-04-28T16:24:05.493Z,8.30
2023-04-28T16:26:32.682Z,7.83
2023-04-28T16:28:59.985Z,7.37
2023-04-28T16:31:27.562Z,7.37
2023-04-28T16:33:55.277Z,6.50
2023-04-28T16:36:22.512Z,6.60
2023-04-28T16:38:49.591Z,5.90
2023-04-28T16:41:17.008Z,6.17
2023-04-28T16:43:44.093Z,6.47
2023-04-28T16:46:11.213Z,6.73
2023-04-28T16:48:38.353Z,6.50
2023-04-28T16:51:08.205Z,6.63
2023-04-28T16:53:35.422Z,7.03
2023-04-28T16:56:02.889Z,6.30
2023-04-28T16:58:29.964Z,7.77
2023-04-28T17:00:57.153Z,7.50
2023-04-28T17:03:24.477Z,8.93
2023-04-28T17:05:54.114Z,7.80
2023-04-28T17:08:21.182Z,6.87
2023-04-28T17:10:48.371Z,7.83
2023-04-28T17:13:15.606Z,8.13
2023-04-28T17:15:42.820Z,8.00
2023-04-28T17:18:10.028Z,7.63
2023-04-28T17:20:38.466Z,7.90
2023-04-28T17:23:05.950Z,7.70
2023-04-28T17:25:33.432Z,7.33
2023-04-28T17:28:01.150Z,6.87
2023-04-28T17:30:28.231Z,6.20
2023-04-28T17:32:55.993Z,6.73
2023-04-28T17:35:23.124Z,6.80
2023-04-28T17:37:50.282Z,7.23
2023-04-28T17:40:18.578Z,7.13
2023-04-28T17:42:45.812Z,7.07
2023-04-28T17:45:12.925Z,6.90
2023-04-28T17:47:40.041Z,7.87
2023-04-28T17:50:07.412Z,9.00
2023-04-28T17:52:34.815Z,7.80
2023-04-28T17:55:02.427Z,7.17
2023-04-28T17:57:31.559Z,7.13
2023-04-28T17:59:58.894Z,6.67
2023-04-28T18:02:26.227Z,6.73
2023-04-28T18:04:53.838Z,7.70
2023-04-28T18:07:21.117Z,7.13
2023-04-28T18:09:48.164Z,6.80
2023-04-28T18:12:15.230Z,6.63
2023-04-28T18:14:44.162Z,7.47
2023-04-28T18:17:11.591Z,7.03
2023-04-28T18:19:38.648Z,6.90
2023-04-28T18:22:06.036Z,7.60
2023-04-28T18:24:33.496Z,7.97
2023-04-28T18:27:00.613Z,7.80
2023-04-28T18:29:27.752Z,7.80
2023-04-28T18:31:55.677Z,8.13
2023-04-28T18:34:23.302Z,7.57
2023-04-28T18:36:50.738Z,7.77
2023-04-28T18:39:21.121Z,7.03
2023-04-28T18:41:48.316Z,7.43
2023-04-28T18:44:15.463Z,7.07
2023-04-28T18:46:42.605Z,7.10
2023-04-28T18:49:10.262Z,7.57
2023-04-28T18:51:38.525Z,7.50
2023-04-28T18:54:05.778Z,7.57
2023-04-28T18:56:33.507Z,6.67
2023-04-28T18:59:00.645Z,7.10
2023-04-28T19:01:27.793Z,7.83
2023-04-28T19:03:57.085Z,7.87
2023-04-28T19:06:24.478Z,7.93
2023-04-28T19:08:51.560Z,7.93
2023-04-28T19:11:18.676Z,7.93
2023-04-28T19:13:51.708Z,8.50
2023-04-28T19:16:19.311Z,10.13
2023-04-28T19:18:46.753Z,8.80
2023-04-28T19:21:13.904Z,8.97
2023-04-28T19:23:41.280Z,9.47
2023-04-28T19:26:09.450Z,9.33
2023-04-28T19:28:36.564Z,9.33
2023-04-28T19:31:04.465Z,9.87
2023-04-28T19:36:09.778Z,9.20
2023-04-28T19:38:39.223Z,10.43
2023-04-28T19:41:06.374Z,11.03
2023-04-28T19:43:33.419Z,11.77
2023-04-28T19:46:00.650Z,12.37
2023-04-28T19:48:27.737Z,11.33
2023-04-28T19:50:54.959Z,12.20
2023-04-28T19:53:22.084Z,12.23
2023-04-28T19:55:49.233Z,12.80
2023-04-28T19:58:17.355Z,12.37
2023-04-28T20:00:45.311Z,12.43
2023-04-28T20:03:13.012Z,12.03
2023-04-28T20:05:40.181Z,12.67
2023-04-28T20:08:08.089Z,13.50
2023-04-28T20:10:35.190Z,15.33
2023-04-28T20:13:02.749Z,12.67
2023-04-28T20:15:29.939Z,12.97
2023-04-28T20:17:57.212Z,12.43
2023-04-28T20:20:24.573Z,12.77
2023-04-28T20:22:51.757Z,13.37
2023-04-28T20:25:18.894Z,12.60
2023-04-28T20:27:46.941Z,12.17
2023-04-28T20:30:14.388Z,13.00
2023-04-28T20:32:41.506Z,12.47
2023-04-28T20:35:08.774Z,12.17
2023-04-28T20:37:35.942Z,12.83
2023-04-28T20:40:03.173Z,13.03
2023-04-28T20:42:30.272Z,12.47
2023-04-28T20:44:57.920Z,11.67
2023-04-28T20:47:25.399Z,13.83
2023-04-28T20:49:52.813Z,12.83
2023-04-28T20:52:20.147Z,12.67
2023-04-28T20:54:47.780Z,12.97
2023-04-28T20:57:14.907Z,12.27
2023-04-28T20:59:41.953Z,12.30
2023-04-28T21:02:09.128Z,12.03
2023-04-28T21:04:36.614Z,13.10
2023-04-28T21:07:04.363Z,12.57
2023-04-28T21:09:31.494Z,13.30
2023-04-28T21:11:58.653Z,14.20
2023-04-28T21:14:25.880Z,12.90
2023-04-28T21:16:53.174Z,14.10
2023-04-28T21:19:20.539Z,13.60
2023-04-28T21:21:47.645Z,13.70
2023-04-28T21:24:14.752Z,14.73
2023-04-28T21:26:42.280Z,14.73
2023-04-28T21:29:09.680Z,14.43
2023-04-28T21:31:37.322Z,14.03
2023-04-28T21:34:04.455Z,13.57
2023-04-28T21:36:32.517Z,14.70
2023-04-28T21:38:59.778Z,14.40
2023-04-28T21:41:26.941Z,14.00
2023-04-28T21:43:54.110Z,13.97
2023-04-28T21:46:21.395Z,14.60
2023-04-28T21:48:48.593Z,15.13
2023-04-28T21:51:16.508Z,14.00
2023-04-28T21:53:43.540Z,13.93
2023-04-28T21:56:10.911Z,13.63
2023-04-28T21:58:38.377Z,15.00
2023-04-28T22:01:05.690Z,14.37
2023-04-28T22:03:35.502Z,15.77
2023-04-28T22:06:02.928Z,14.97
2023-04-28T22:08:31.439Z,15.30
2023-04-28T22:10:58.609Z,15.83
2023-04-28T22:13:26.061Z,14.20
2023-04-28T22:15:53.360Z,15.43
2023-04-28T22:18:20.569Z,15.73
2023-04-28T22:20:47.782Z,14.80
2023-04-28T22:23:14.904Z,14.63
2023-04-28T22:25:42.516Z,14.33
2023-04-28T22:28:10.256Z,14.63
2023-04-28T22:30:37.434Z,14.10
2023-04-28T22:33:05.629Z,14.77
2023-04-28T22:35:32.812Z,17.20
2023-04-28T22:38:00.294Z,19.83
2023-04-28T22:40:27.966Z,18.57
2023-04-28T22:42:55.045Z,18.17
2023-04-28T22:45:22.196Z,18.17
2023-04-28T22:47:49.422Z,19.50
2023-04-28T22:50:20.974Z,23.07
2023-04-28T22:52:48.125Z,21.50
2023-04-28T22:55:15.574Z,23.73
2023-04-28T22:57:42.694Z,23.87
2023-04-28T23:00:10.427Z,24.87
2023-04-28T23:02:37.832Z,23.33
2023-04-28T23:05:05.289Z,25.00
2023-04-28T23:07:32.440Z,27.53
2023-04-28T23:09:59.615Z,26.17
2023-04-28T23:12:26.749Z,26.77
2023-04-28T23:14:54.257Z,27.70
2023-04-28T23:17:21.453Z,30.27
2023-04-28T23:19:48.738Z,32.07
2023-04-28T23:22:16.239Z,27.53
2023-04-28T23:24:44.130Z,33.00
2023-04-28T23:27:12.008Z,32.63
2023-04-28T23:29:39.098Z,33.27
2023-04-28T23:32:06.273Z,34.63
2023-04-28T23:34:33.472Z,36.20
2023-04-28T23:37:01.036Z,37.93
2023-04-28T23:39:30.116Z,35.10
2023-04-28T23:41:58.616Z,37.00
2023-04-28T23:44:25.846Z,41.50
2023-04-28T23:46:54.240Z,38.20
2023-04-28T23:49:23.138Z,41.43
2023-04-28T23:51:50.410Z,36.43
2023-04-28T23:54:17.640Z,38.53
2023-04-28T23:56:45.065Z,40.60
2023-04-28T23:59:12.225Z,42.13
